Terminal Aerodrome Forecast
Issued by NWS Charleston, WV

Home | Current Version | Previous Version | Text Only | Print | Product List | Glossary On
Versions: 1 2 3 4 5 6 7 8 9 10 11 12 13 14 15 16 17 18 19 20 21 22 23 24 25
000
FTUS41 KRLX 300238 AAA
TAFPKB
TAF AMD
KPKB 300238Z 3003/3024 00000KT P6SM SCT040
     FM300600 00000KT 5SM BR BKN040
     FM301000 00000KT 6SM BR BKN040
     FM301200 00000KT P6SM BKN040
     FM302000 21006KT P6SM BKN040=

USA.gov is the U.S. government's official web portal to all federal, state and local government web resources and services.